createdAt,value
2023-05-15T00:02:30.141Z,4.07
2023-05-15T00:05:36.302Z,3.93
2023-05-15T00:08:42.515Z,3.87
2023-05-15T00:11:48.420Z,3.87
2023-05-15T00:14:56.041Z,3.13
2023-05-15T00:18:02.054Z,3.77
2023-05-15T00:21:08.059Z,3.90
2023-05-15T00:24:14.246Z,3.50
2023-05-15T00:27:20.317Z,4.30
2023-05-15T00:30:28.016Z,4.20
2023-05-15T00:33:34.258Z,4.03
2023-05-15T00:36:40.513Z,4.23
2023-05-15T00:39:46.649Z,3.73
2023-05-15T00:42:53.636Z,4.40
2023-05-15T00:46:02.412Z,4.33
2023-05-15T00:49:13.673Z,4.60
2023-05-15T00:52:19.934Z,4.40
2023-05-15T00:55:27.662Z,4.13
2023-05-15T00:58:35.078Z,4.73
2023-05-15T01:01:45.385Z,3.77
2023-05-15T01:04:51.891Z,4.13
2023-05-15T01:08:09.818Z,4.03
2023-05-15T01:11:17.311Z,3.90
2023-05-15T01:14:23.602Z,4.07
2023-05-15T01:17:31.292Z,4.43
2023-05-15T01:20:59.674Z,4.30
2023-05-15T01:24:19.689Z,3.83
2023-05-15T01:27:31.769Z,3.60
2023-05-15T01:30:41.994Z,3.77
2023-05-15T01:33:52.688Z,3.60
2023-05-15T01:37:04.368Z,3.30
2023-05-15T01:40:13.185Z,3.87
2023-05-15T01:43:29.463Z,3.80
2023-05-15T01:46:39.447Z,3.67
2023-05-15T01:49:46.745Z,3.67
2023-05-15T01:52:57.798Z,3.87
2023-05-15T01:56:08.250Z,3.97
2023-05-15T01:59:17.867Z,4.00
2023-05-15T02:02:25.221Z,3.93
2023-05-15T02:05:32.366Z,3.60
2023-05-15T02:08:39.192Z,3.93
2023-05-15T02:11:46.009Z,3.90
2023-05-15T02:14:54.158Z,4.53
2023-05-15T02:18:00.672Z,3.73
2023-05-15T02:21:06.972Z,3.90
2023-05-15T02:24:13.170Z,4.50
2023-05-15T02:27:23.835Z,3.90
2023-05-15T02:30:39.636Z,3.80
2023-05-15T02:33:53.810Z,4.03
2023-05-15T02:37:02.460Z,4.57
2023-05-15T02:40:12.844Z,4.07
2023-05-15T02:43:20.226Z,5.07
2023-05-15T02:46:29.173Z,5.13
2023-05-15T02:49:36.935Z,4.50
2023-05-15T02:52:42.952Z,5.03
2023-05-15T02:55:49.433Z,4.20
2023-05-15T02:58:55.565Z,4.13
2023-05-15T03:02:03.905Z,4.80
2023-05-15T03:05:10.892Z,4.00
2023-05-15T03:08:17.117Z,3.80
2023-05-15T03:11:23.607Z,4.10
2023-05-15T03:14:30.184Z,3.63
2023-05-15T03:17:37.801Z,4.90
2023-05-15T03:20:44.465Z,4.07
2023-05-15T03:23:50.834Z,4.43
2023-05-15T03:26:57.174Z,3.77
2023-05-15T03:30:03.408Z,4.07
2023-05-15T03:33:10.900Z,3.47
2023-05-15T03:36:17.240Z,3.63
2023-05-15T03:39:23.503Z,5.00
2023-05-15T03:42:29.604Z,5.37
2023-05-15T03:45:35.986Z,8.50
2023-05-15T03:48:43.661Z,6.80
2023-05-15T03:51:49.975Z,5.90
2023-05-15T03:54:56.044Z,5.33
2023-05-15T03:58:02.119Z,7.40
2023-05-15T04:01:08.242Z,7.43
2023-05-15T04:04:15.718Z,5.80
2023-05-15T04:07:21.846Z,6.90
2023-05-15T04:10:28.038Z,6.57
2023-05-15T04:13:34.189Z,7.50
2023-05-15T04:16:40.941Z,7.27
2023-05-15T04:19:48.793Z,8.50
2023-05-15T04:22:55.273Z,8.30
2023-05-15T04:26:01.583Z,6.90
2023-05-15T04:29:07.782Z,6.50
2023-05-15T04:32:14.518Z,7.17
2023-05-15T04:35:22.433Z,7.20
2023-05-15T04:38:28.964Z,5.30
2023-05-15T04:41:34.856Z,6.70
2023-05-15T04:44:41.181Z,5.50
2023-05-15T04:47:47.556Z,4.87
2023-05-15T04:50:55.159Z,6.20
2023-05-15T04:54:01.513Z,14.03
2023-05-15T04:57:07.832Z,6.40
2023-05-15T05:00:15.823Z,5.83
2023-05-15T05:03:22.857Z,4.00
2023-05-15T05:06:30.821Z,4.83
2023-05-15T05:09:37.281Z,3.77
2023-05-15T05:12:43.761Z,4.30
2023-05-15T05:15:49.919Z,4.20
2023-05-15T05:18:56.056Z,5.53
2023-05-15T05:22:05.463Z,5.27
2023-05-15T05:25:12.273Z,7.50
2023-05-15T05:28:18.625Z,7.80
2023-05-15T05:31:25.076Z,6.23
2023-05-15T05:34:31.026Z,6.30
2023-05-15T05:37:40.835Z,5.23
2023-05-15T05:40:47.391Z,5.97
2023-05-15T05:43:53.636Z,5.30
2023-05-15T05:47:00.057Z,4.10
2023-05-15T05:50:07.350Z,4.63
2023-05-15T05:53:14.788Z,4.43
2023-05-15T05:56:21.870Z,5.30
2023-05-15T05:59:27.856Z,5.10
2023-05-15T06:02:33.879Z,4.40
2023-05-15T06:05:39.984Z,3.70
2023-05-15T06:08:47.369Z,4.73
2023-05-15T06:11:53.462Z,4.20
2023-05-15T06:14:59.660Z,5.03
2023-05-15T06:18:06.173Z,5.30
2023-05-15T06:21:12.590Z,5.53
2023-05-15T06:24:20.390Z,5.90
2023-05-15T06:27:27.670Z,5.87
2023-05-15T06:30:34.091Z,5.43
2023-05-15T06:33:40.245Z,4.83
2023-05-15T06:36:46.860Z,5.47
2023-05-15T06:39:54.642Z,4.80
2023-05-15T06:43:00.970Z,4.80
2023-05-15T06:46:07.081Z,4.37
2023-05-15T06:49:13.361Z,5.97
2023-05-15T06:52:19.426Z,5.70
2023-05-15T06:55:26.888Z,4.63
2023-05-15T06:58:33.012Z,4.73
2023-05-15T07:01:39.355Z,3.77
2023-05-15T07:04:45.860Z,4.97
2023-05-15T07:07:52.167Z,4.57
2023-05-15T07:10:59.598Z,3.43
2023-05-15T07:14:06.826Z,3.87
2023-05-15T07:17:13.172Z,3.53
2023-05-15T07:20:19.262Z,3.83
2023-05-15T07:23:25.577Z,3.40
2023-05-15T07:26:41.026Z,3.90
2023-05-15T07:29:50.317Z,4.03
2023-05-15T07:32:56.364Z,3.63
2023-05-15T07:36:02.254Z,5.27
2023-05-15T07:39:08.492Z,4.90
2023-05-15T07:42:16.138Z,3.47
2023-05-15T07:45:22.640Z,3.63
2023-05-15T07:48:29.221Z,3.43
2023-05-15T07:51:35.165Z,3.50
2023-05-15T07:54:41.904Z,3.00
2023-05-15T07:57:53.500Z,3.20
2023-05-15T08:00:59.925Z,3.50
2023-05-15T08:04:09.927Z,3.80
2023-05-15T08:07:16.268Z,4.83
2023-05-15T08:10:22.552Z,5.20
2023-05-15T08:13:30.196Z,5.60
2023-05-15T08:16:36.571Z,5.17
2023-05-15T08:19:42.803Z,5.27
2023-05-15T08:22:49.156Z,6.70
2023-05-15T08:25:55.242Z,5.23
2023-05-15T08:29:03.165Z,4.27
2023-05-15T08:32:10.554Z,4.90
2023-05-15T08:35:17.128Z,6.50
2023-05-15T08:38:24.035Z,5.27
2023-05-15T08:41:40.615Z,3.73
2023-05-15T08:44:49.172Z,3.87
2023-05-15T08:47:55.703Z,5.13
2023-05-15T08:51:02.391Z,5.33
2023-05-15T08:54:08.753Z,10.40
2023-05-15T08:57:16.207Z,4.83
2023-05-15T09:00:24.327Z,4.80
2023-05-15T09:03:31.602Z,4.67
2023-05-15T09:06:38.759Z,4.33
2023-05-15T09:09:46.505Z,4.30
2023-05-15T09:12:53.513Z,4.20
2023-05-15T09:16:01.736Z,5.07
2023-05-15T09:19:08.804Z,5.57
2023-05-15T09:22:23.427Z,5.87
2023-05-15T09:25:38.695Z,5.67
2023-05-15T09:28:45.040Z,5.93
2023-05-15T09:31:53.000Z,5.77
2023-05-15T09:34:59.490Z,4.70
2023-05-15T09:38:09.719Z,4.37
2023-05-15T09:41:15.613Z,3.73
2023-05-15T09:44:25.968Z,6.80
2023-05-15T09:47:33.678Z,5.03
2023-05-15T09:50:41.093Z,4.43
2023-05-15T09:53:50.872Z,4.23
2023-05-15T09:56:57.365Z,4.13
2023-05-15T10:00:05.401Z,4.30
2023-05-15T10:03:13.663Z,3.90
2023-05-15T10:06:20.551Z,3.80
2023-05-15T10:09:32.355Z,3.40
2023-05-15T10:12:38.996Z,3.37
2023-05-15T10:15:49.929Z,3.40
2023-05-15T10:18:59.622Z,3.90
2023-05-15T10:22:06.582Z,2.87
2023-05-15T10:25:18.395Z,3.10
2023-05-15T10:28:25.769Z,3.63
2023-05-15T10:31:32.897Z,3.83
2023-05-15T10:34:40.853Z,3.73
2023-05-15T10:37:49.149Z,3.73
2023-05-15T10:41:12.955Z,3.43
2023-05-15T10:44:24.661Z,3.60
2023-05-15T10:47:31.992Z,3.57
2023-05-15T10:50:39.954Z,2.90
2023-05-15T10:53:46.486Z,3.60
2023-05-15T10:56:53.082Z,4.00
2023-05-15T10:59:59.796Z,4.87
2023-05-15T11:03:06.589Z,3.87
2023-05-15T11:06:14.594Z,3.93
2023-05-15T11:09:37.744Z,3.40
2023-05-15T11:13:00.353Z,3.87
2023-05-15T11:16:06.943Z,4.30
2023-05-15T11:19:23.778Z,6.07
2023-05-15T11:22:33.885Z,5.10
2023-05-15T11:25:40.718Z,3.90
2023-05-15T11:28:47.441Z,4.83
2023-05-15T11:31:53.546Z,3.50
2023-05-15T11:35:01.842Z,4.80
2023-05-15T11:38:15.866Z,3.40
2023-05-15T11:41:27.707Z,3.20
2023-05-15T11:44:34.422Z,4.23
2023-05-15T11:47:45.510Z,3.63
2023-05-15T11:50:53.919Z,4.17
2023-05-15T11:54:05.701Z,4.00
2023-05-15T11:57:13.424Z,3.70
2023-05-15T12:00:19.701Z,7.13
2023-05-15T12:03:27.499Z,3.30
2023-05-15T12:06:33.725Z,4.00
2023-05-15T12:09:41.773Z,3.87
2023-05-15T12:12:48.617Z,3.70
2023-05-15T12:15:57.026Z,3.97
2023-05-15T12:19:03.251Z,3.53
2023-05-15T12:22:09.468Z,3.77
2023-05-15T12:25:17.911Z,3.80
2023-05-15T12:28:23.870Z,5.93
2023-05-15T12:31:30.475Z,4.00
2023-05-15T12:34:37.156Z,3.37
2023-05-15T12:37:43.758Z,3.63
2023-05-15T12:40:53.729Z,3.20
2023-05-15T12:44:00.334Z,3.83
2023-05-15T12:47:07.084Z,3.17
2023-05-15T12:50:15.994Z,2.83
2023-05-15T12:53:23.325Z,3.40
2023-05-15T12:56:32.437Z,3.00
2023-05-15T12:59:40.268Z,2.93
2023-05-15T13:02:46.969Z,2.73
2023-05-15T13:05:53.300Z,2.80
2023-05-15T13:09:00.302Z,2.80
2023-05-15T13:12:08.176Z,2.27
2023-05-15T13:15:27.342Z,2.90
2023-05-15T13:18:33.391Z,3.23
2023-05-15T13:21:39.952Z,3.47
2023-05-15T13:24:50.121Z,3.80
2023-05-15T13:27:59.388Z,4.33
2023-05-15T13:31:06.303Z,3.27
2023-05-15T13:34:12.597Z,4.13
2023-05-15T13:37:18.965Z,5.33
2023-05-15T13:40:25.619Z,4.03
2023-05-15T13:43:33.188Z,3.70
2023-05-15T13:46:39.569Z,4.13
2023-05-15T13:49:46.766Z,3.80
2023-05-15T13:52:54.599Z,3.67
2023-05-15T13:56:01.112Z,3.97
2023-05-15T13:59:08.462Z,4.03
2023-05-15T14:02:14.709Z,3.57
2023-05-15T14:05:20.808Z,4.03
2023-05-15T14:08:26.973Z,3.97
2023-05-15T14:11:32.983Z,3.43
2023-05-15T14:14:40.459Z,2.83
2023-05-15T14:17:48.482Z,3.33
2023-05-15T14:20:55.274Z,3.33
2023-05-15T14:24:01.650Z,2.77
2023-05-15T14:27:08.239Z,3.07
2023-05-15T14:30:16.071Z,3.90
2023-05-15T14:33:25.215Z,5.83
2023-05-15T14:36:31.486Z,4.17
2023-05-15T14:39:37.932Z,4.03
2023-05-15T14:42:44.658Z,5.27
2023-05-15T14:45:52.757Z,4.90
2023-05-15T14:48:58.916Z,4.23
2023-05-15T14:52:05.748Z,5.70
2023-05-15T14:55:12.192Z,4.93
2023-05-15T14:58:18.204Z,3.40
2023-05-15T15:01:25.853Z,3.10
2023-05-15T15:04:34.548Z,3.27
2023-05-15T15:08:01.721Z,3.40
2023-05-15T15:11:08.134Z,2.90
2023-05-15T15:14:14.236Z,3.30
2023-05-15T15:17:21.756Z,3.40
2023-05-15T15:20:29.485Z,2.77
2023-05-15T15:23:35.938Z,2.60
2023-05-15T15:26:42.058Z,2.83
2023-05-15T15:29:48.241Z,2.50
2023-05-15T15:32:56.090Z,2.30
2023-05-15T15:36:02.202Z,2.83
2023-05-15T15:39:08.358Z,2.87
2023-05-15T15:42:14.980Z,2.47
2023-05-15T15:45:20.949Z,2.40
2023-05-15T15:48:28.256Z,2.40
2023-05-15T15:51:34.343Z,2.97
2023-05-15T15:54:46.880Z,4.00
2023-05-15T15:57:52.824Z,3.20
2023-05-15T16:00:59.083Z,44.53
2023-05-15T16:04:06.671Z,14.03
2023-05-15T16:07:12.913Z,7.30
2023-05-15T16:10:19.416Z,6.20
2023-05-15T16:13:25.672Z,7.87
2023-05-15T16:16:31.834Z,8.80
2023-05-15T16:19:39.188Z,6.10
2023-05-15T16:22:45.918Z,5.10
2023-05-15T16:25:52.367Z,7.20
2023-05-15T16:28:58.890Z,8.00
2023-05-15T16:32:05.079Z,5.87
2023-05-15T16:35:12.677Z,7.37
2023-05-15T16:38:19.044Z,7.33
2023-05-15T16:41:26.477Z,7.03
2023-05-15T16:44:32.945Z,5.67
2023-05-15T16:47:41.228Z,6.23
2023-05-15T16:50:49.255Z,6.97
2023-05-15T16:53:56.532Z,6.53
2023-05-15T16:57:02.794Z,4.63
2023-05-15T17:00:10.360Z,4.47
2023-05-15T17:03:17.584Z,3.93
2023-05-15T17:06:25.808Z,4.00
2023-05-15T17:09:32.894Z,4.07
2023-05-15T17:12:39.879Z,5.73
2023-05-15T17:15:47.327Z,8.67
2023-05-15T17:18:53.729Z,13.70
2023-05-15T17:22:01.879Z,10.50
2023-05-15T17:25:08.539Z,7.33
2023-05-15T17:28:14.690Z,7.10
2023-05-15T17:31:21.239Z,6.60
2023-05-15T17:34:27.996Z,6.37
2023-05-15T17:37:35.352Z,5.90
2023-05-15T17:40:41.502Z,6.20
2023-05-15T17:43:48.228Z,5.70
2023-05-15T17:46:54.148Z,5.87
2023-05-15T17:50:00.296Z,7.87
2023-05-15T17:53:08.131Z,8.00
2023-05-15T17:56:14.493Z,10.50
2023-05-15T17:59:20.984Z,12.50
2023-05-15T18:02:27.365Z,12.20
2023-05-15T18:05:33.465Z,14.27
2023-05-15T18:08:41.537Z,20.37
2023-05-15T18:11:49.699Z,14.87
2023-05-15T18:14:56.081Z,19.07
2023-05-15T18:18:02.421Z,15.43
2023-05-15T18:21:08.659Z,14.07
2023-05-15T18:24:16.292Z,14.60
2023-05-15T18:27:22.788Z,12.83
2023-05-15T18:30:29.028Z,14.73
2023-05-15T18:33:35.860Z,12.43
2023-05-15T18:36:42.625Z,12.80
2023-05-15T18:39:50.357Z,11.00
2023-05-15T18:42:57.040Z,9.80
2023-05-15T18:46:03.322Z,9.20
2023-05-15T18:49:09.590Z,11.13
2023-05-15T18:52:15.612Z,11.37
2023-05-15T18:55:23.793Z,12.10
2023-05-15T18:58:30.283Z,15.33
2023-05-15T19:01:36.512Z,13.63
2023-05-15T19:04:42.888Z,14.27
2023-05-15T19:07:49.514Z,12.30
2023-05-15T19:10:57.808Z,11.43
2023-05-15T19:14:05.267Z,12.00
2023-05-15T19:17:11.916Z,13.93
2023-05-15T19:20:18.715Z,12.83
2023-05-15T19:23:25.817Z,10.10
2023-05-15T19:26:34.093Z,9.60
2023-05-15T19:29:42.747Z,11.83
2023-05-15T19:32:48.901Z,8.93
2023-05-15T19:35:55.096Z,7.03
2023-05-15T19:39:01.457Z,5.47
2023-05-15T19:42:09.200Z,5.53
2023-05-15T19:45:15.679Z,4.77
2023-05-15T19:48:21.721Z,5.83
2023-05-15T19:51:28.009Z,8.20
2023-05-15T19:54:34.137Z,8.67
2023-05-15T19:57:42.727Z,7.63
2023-05-15T20:00:50.037Z,8.70
2023-05-15T20:03:56.609Z,7.00
2023-05-15T20:07:06.748Z,6.60
2023-05-15T20:13:40.450Z,7.17
2023-05-15T20:16:46.650Z,8.10
2023-05-15T20:19:54.003Z,6.93
2023-05-15T20:23:00.180Z,7.30
2023-05-15T20:26:06.441Z,6.93
2023-05-15T20:29:14.104Z,7.73
2023-05-15T20:32:20.900Z,6.47
2023-05-15T20:35:28.121Z,5.67
2023-05-15T20:38:35.709Z,7.17
2023-05-15T20:41:41.756Z,7.20
2023-05-15T20:44:49.628Z,7.47
2023-05-15T20:47:55.984Z,9.20
2023-05-15T20:51:01.944Z,9.13
2023-05-15T20:54:08.240Z,14.20
2023-05-15T20:57:14.484Z,11.13
2023-05-15T21:00:22.934Z,11.77
2023-05-15T21:03:30.418Z,10.03
2023-05-15T21:06:37.121Z,8.83
2023-05-15T21:09:43.460Z,8.43
2023-05-15T21:12:49.454Z,10.30
2023-05-15T21:15:57.036Z,10.97
2023-05-15T21:19:03.196Z,7.67
2023-05-15T21:22:09.791Z,7.07
2023-05-15T21:25:16.442Z,6.47
2023-05-15T21:28:22.439Z,6.80
2023-05-15T21:31:30.125Z,7.10
2023-05-15T21:34:36.615Z,6.33
2023-05-15T21:37:42.743Z,6.10
2023-05-15T21:40:48.744Z,6.97
2023-05-15T21:43:55.099Z,5.40
2023-05-15T21:47:05.852Z,6.13
2023-05-15T21:50:12.350Z,6.93
2023-05-15T21:53:18.750Z,6.57
2023-05-15T21:56:24.769Z,6.33
2023-05-15T21:59:30.683Z,11.00
2023-05-15T22:02:38.418Z,8.43
2023-05-15T22:05:44.882Z,7.20
2023-05-15T22:08:50.797Z,6.37
2023-05-15T22:11:56.771Z,5.97
2023-05-15T22:15:03.003Z,7.13
2023-05-15T22:18:11.319Z,7.87
2023-05-15T22:21:17.470Z,6.70
2023-05-15T22:24:23.930Z,6.77
2023-05-15T22:27:30.218Z,7.10
2023-05-15T22:30:36.426Z,6.50
2023-05-15T22:33:44.054Z,6.67
2023-05-15T22:36:50.436Z,6.60
2023-05-15T22:39:56.408Z,6.27
2023-05-15T22:43:02.508Z,6.63
2023-05-15T22:46:08.830Z,6.10
2023-05-15T22:49:19.371Z,7.43
2023-05-15T22:52:25.470Z,9.33
2023-05-15T22:55:31.682Z,8.43
2023-05-15T22:58:37.574Z,8.47
2023-05-15T23:01:43.721Z,7.13
2023-05-15T23:04:51.181Z,5.67
2023-05-15T23:07:57.609Z,6.57
2023-05-15T23:11:03.834Z,5.63
2023-05-15T23:14:12.168Z,5.63
2023-05-15T23:17:18.477Z,5.17
2023-05-15T23:20:26.428Z,5.60
2023-05-15T23:23:32.672Z,4.50
2023-05-15T23:26:39.183Z,4.80
2023-05-15T23:29:45.339Z,4.90
2023-05-15T23:32:51.831Z,4.90
2023-05-15T23:35:59.444Z,4.67
2023-05-15T23:39:06.194Z,4.60
2023-05-15T23:42:12.612Z,4.90
2023-05-15T23:45:18.979Z,4.83
2023-05-15T23:48:24.960Z,4.50
2023-05-15T23:51:32.825Z,4.20
2023-05-15T23:54:39.058Z,4.60
2023-05-15T23:57:46.968Z,4.17
